createdAt,value
2023-04-28T00:00:08.844Z,3.15
2023-04-28T00:02:37.241Z,3.00
2023-04-28T00:05:06.333Z,3.85
2023-04-28T00:07:36.227Z,3.30
2023-04-28T00:10:04.630Z,3.25
2023-04-28T00:12:33.380Z,3.45
2023-04-28T00:15:01.621Z,3.30
2023-04-28T00:17:30.618Z,3.22
2023-04-28T00:19:58.998Z,3.45
2023-04-28T00:22:27.393Z,3.22
2023-04-28T00:24:56.988Z,2.88
2023-04-28T00:27:25.338Z,3.30
2023-04-28T00:29:53.584Z,3.53
2023-04-28T00:32:21.824Z,3.35
2023-04-28T00:34:50.140Z,3.33
2023-04-28T00:37:18.623Z,3.47
2023-04-28T00:39:47.876Z,3.33
2023-04-28T00:42:17.756Z,3.38
2023-04-28T00:44:46.004Z,3.53
2023-04-28T00:47:14.705Z,3.53
2023-04-28T00:49:42.972Z,3.72
2023-04-28T00:52:11.791Z,3.72
2023-04-28T00:54:40.446Z,3.58
2023-04-28T00:57:08.854Z,3.38
2023-04-28T00:59:38.576Z,3.70
2023-04-28T01:02:07.700Z,4.10
2023-04-28T01:04:37.079Z,3.60
2023-04-28T01:07:06.327Z,4.20
2023-04-28T01:13:57.376Z,3.58
2023-04-28T01:16:28.272Z,4.47
2023-04-28T01:18:57.164Z,3.75
2023-04-28T01:21:30.366Z,3.90
2023-04-28T01:24:00.473Z,3.75
2023-04-28T01:26:29.661Z,4.10
2023-04-28T01:28:57.926Z,3.88
2023-04-28T01:31:27.535Z,3.63
2023-04-28T01:33:55.941Z,4.00
2023-04-28T01:36:24.708Z,3.50
2023-04-28T01:38:53.004Z,3.97
2023-04-28T01:41:22.631Z,3.50
2023-04-28T01:43:51.026Z,3.70
2023-04-28T01:46:20.065Z,4.05
2023-04-28T01:48:48.598Z,3.65
2023-04-28T01:51:17.069Z,3.92
2023-04-28T01:53:45.386Z,3.45
2023-04-28T01:56:14.375Z,3.92
2023-04-28T01:58:44.607Z,3.60
2023-04-28T02:01:14.555Z,4.13
2023-04-28T02:03:44.199Z,3.83
2023-04-28T02:06:12.776Z,3.88
2023-04-28T02:08:41.184Z,3.90
2023-04-28T02:11:09.516Z,3.63
2023-04-28T02:13:37.911Z,3.70
2023-04-28T02:16:08.464Z,4.13
2023-04-28T02:18:37.051Z,3.95
2023-04-28T02:21:10.935Z,4.40
2023-04-28T02:23:39.863Z,4.10
2023-04-28T02:26:08.395Z,4.10
2023-04-28T02:28:37.511Z,4.15
2023-04-28T02:31:10.159Z,4.40
2023-04-28T02:33:39.646Z,4.00
2023-04-28T02:36:08.766Z,4.35
2023-04-28T02:38:37.187Z,4.22
2023-04-28T02:41:09.271Z,4.93
2023-04-28T02:43:38.793Z,4.15
2023-04-28T02:46:08.698Z,4.60
2023-04-28T02:48:37.837Z,4.43
2023-04-28T02:51:06.456Z,4.65
2023-04-28T02:53:35.528Z,4.57
2023-04-28T02:56:04.582Z,4.82
2023-04-28T02:58:34.487Z,5.15
2023-04-28T03:01:03.395Z,5.18
2023-04-28T03:03:33.507Z,5.15
2023-04-28T03:06:02.266Z,5.18
2023-04-28T03:08:30.527Z,5.55
2023-04-28T03:10:58.892Z,5.43
2023-04-28T03:13:29.838Z,5.10
2023-04-28T03:15:58.291Z,5.63
2023-04-28T03:18:26.813Z,5.47
2023-04-28T03:20:58.187Z,5.43
2023-04-28T03:23:28.306Z,5.93
2023-04-28T03:25:57.877Z,5.47
2023-04-28T03:28:27.256Z,6.05
2023-04-28T03:30:55.999Z,6.53
2023-04-28T03:33:24.629Z,6.10
2023-04-28T03:35:55.335Z,6.13
2023-04-28T03:38:25.592Z,6.10
2023-04-28T03:40:53.988Z,5.40
2023-04-28T03:43:24.509Z,5.93
2023-04-28T03:46:09.200Z,6.32
2023-04-28T03:48:37.631Z,6.00
2023-04-28T03:51:06.102Z,5.97
2023-04-28T03:53:35.808Z,5.95
2023-04-28T03:56:04.179Z,6.22
2023-04-28T03:58:32.709Z,6.35
2023-04-28T04:01:02.614Z,5.40
2023-04-28T04:03:31.098Z,5.72
2023-04-28T04:06:00.373Z,5.82
2023-04-28T04:08:29.096Z,6.13
2023-04-28T04:10:58.679Z,5.40
2023-04-28T04:13:27.272Z,5.65
2023-04-28T04:15:55.989Z,6.18
2023-04-28T04:18:26.362Z,6.07
2023-04-28T04:21:14.619Z,6.32
2023-04-28T04:23:43.323Z,6.38
2023-04-28T04:26:13.013Z,6.07
2023-04-28T04:28:41.532Z,5.88
2023-04-28T04:31:11.400Z,5.95
2023-04-28T04:33:39.793Z,6.20
2023-04-28T04:36:09.219Z,6.38
2023-04-28T04:38:37.989Z,6.43
2023-04-28T04:41:15.922Z,6.22
2023-04-28T04:43:45.186Z,6.70
2023-04-28T04:46:14.703Z,6.30
2023-04-28T04:48:43.232Z,6.80
2023-04-28T04:51:11.860Z,7.32
2023-04-28T04:53:40.580Z,7.30
2023-04-28T04:56:09.086Z,7.65
2023-04-28T04:58:44.211Z,7.28
2023-04-28T05:01:32.422Z,7.20
2023-04-28T05:04:01.136Z,6.90
2023-04-28T05:06:29.562Z,7.63
2023-04-28T05:08:59.259Z,7.47
2023-04-28T05:11:28.028Z,7.07
2023-04-28T05:13:57.883Z,8.27
2023-04-28T05:16:26.550Z,8.07
2023-04-28T05:19:02.424Z,8.25
2023-04-28T05:21:31.050Z,7.90
2023-04-28T05:24:00.430Z,7.40
2023-04-28T05:26:28.970Z,8.00
2023-04-28T05:29:03.054Z,7.55
2023-04-28T05:31:31.554Z,8.27
2023-04-28T05:34:00.308Z,7.60
2023-04-28T05:36:29.305Z,8.30
2023-04-28T05:38:58.097Z,7.38
2023-04-28T05:41:26.493Z,7.90
2023-04-28T05:43:54.804Z,8.10
2023-04-28T05:46:30.703Z,8.80
2023-04-28T05:49:01.556Z,7.90
2023-04-28T05:51:34.791Z,8.50
2023-04-28T05:54:04.124Z,8.50
2023-04-28T05:56:35.980Z,8.90
2023-04-28T05:59:04.950Z,8.48
2023-04-28T06:01:34.830Z,8.75
2023-04-28T06:04:03.494Z,7.97
2023-04-28T06:06:32.283Z,8.50
2023-04-28T06:09:01.196Z,9.02
2023-04-28T06:11:29.555Z,8.52
2023-04-28T06:13:58.975Z,8.98
2023-04-28T06:16:27.467Z,8.90
2023-04-28T06:18:57.425Z,8.95
2023-04-28T06:21:27.319Z,8.98
2023-04-28T06:23:56.163Z,8.38
2023-04-28T06:26:25.861Z,8.88
2023-04-28T06:28:54.254Z,8.75
2023-04-28T06:31:22.584Z,8.85
2023-04-28T06:33:53.544Z,7.78
2023-04-28T06:36:25.562Z,8.23
2023-04-28T06:38:53.991Z,9.10
2023-04-28T06:41:22.662Z,9.07
2023-04-28T06:43:53.211Z,9.05
2023-04-28T06:46:26.260Z,7.95
2023-04-28T06:48:54.748Z,7.80
2023-04-28T06:51:22.932Z,9.52
2023-04-28T06:53:53.368Z,9.10
2023-04-28T06:56:22.189Z,9.27
2023-04-28T06:58:50.883Z,8.52
2023-04-28T07:01:19.151Z,9.10
2023-04-28T07:03:47.667Z,9.00
2023-04-28T07:06:16.559Z,10.13
2023-04-28T07:08:45.511Z,8.90
2023-04-28T07:11:15.701Z,8.80
2023-04-28T07:13:44.083Z,8.80
2023-04-28T07:16:12.347Z,9.27
2023-04-28T07:18:40.911Z,9.38
2023-04-28T07:21:09.140Z,8.50
2023-04-28T07:23:38.639Z,9.20
2023-04-28T07:26:07.095Z,9.07
2023-04-28T07:28:37.281Z,9.30
2023-04-28T07:31:05.756Z,9.23
2023-04-28T07:33:34.233Z,9.30
2023-04-28T07:36:02.513Z,8.23
2023-04-28T07:38:30.896Z,8.95
2023-04-28T07:40:59.190Z,8.98
2023-04-28T07:43:27.560Z,9.55
2023-04-28T07:45:57.972Z,8.95
2023-04-28T07:48:27.436Z,8.95
2023-04-28T07:50:55.752Z,8.90
2023-04-28T07:53:24.140Z,9.00
2023-04-28T07:55:52.438Z,8.40
2023-04-28T07:58:20.860Z,8.82
2023-04-28T08:00:49.111Z,8.77
2023-04-28T08:03:19.171Z,8.65
2023-04-28T08:05:47.727Z,9.00
2023-04-28T08:08:16.114Z,8.65
2023-04-28T08:10:44.349Z,9.13
2023-04-28T08:13:12.883Z,8.95
2023-04-28T08:15:41.586Z,8.07
2023-04-28T08:18:09.950Z,8.30
2023-04-28T08:20:39.638Z,8.98
2023-04-28T08:23:08.092Z,8.82
2023-04-28T08:25:36.535Z,8.88
2023-04-28T08:28:06.245Z,8.98
2023-04-28T08:30:34.713Z,8.68
2023-04-28T08:33:03.090Z,9.10
2023-04-28T08:35:31.656Z,9.18
2023-04-28T08:38:01.521Z,9.05
2023-04-28T08:40:31.434Z,9.40
2023-04-28T08:43:01.155Z,9.60
2023-04-28T08:45:32.230Z,8.90
2023-04-28T08:48:02.593Z,8.77
2023-04-28T08:50:34.418Z,8.57
2023-04-28T08:53:06.308Z,8.82
2023-04-28T08:55:36.305Z,9.05
2023-04-28T08:58:05.614Z,8.68
2023-04-28T09:00:34.166Z,8.65
2023-04-28T09:03:02.520Z,9.00
2023-04-28T09:05:31.337Z,8.10
2023-04-28T09:07:59.668Z,8.27
2023-04-28T09:10:29.490Z,7.95
2023-04-28T09:12:58.503Z,8.30
2023-04-28T09:15:28.489Z,8.00
2023-04-28T09:17:57.133Z,8.48
2023-04-28T09:20:26.969Z,8.10
2023-04-28T09:22:56.791Z,8.45
2023-04-28T09:25:26.929Z,8.70
2023-04-28T09:27:56.760Z,8.05
2023-04-28T09:30:40.977Z,8.00
2023-04-28T09:33:11.452Z,7.85
2023-04-28T09:35:41.872Z,8.32
2023-04-28T09:38:10.500Z,8.23
2023-04-28T09:40:52.433Z,8.45
2023-04-28T09:43:31.054Z,8.80
2023-04-28T09:46:00.968Z,9.55
2023-04-28T09:48:33.635Z,9.57
2023-04-28T09:51:03.529Z,9.20
2023-04-28T09:53:32.235Z,10.05
2023-04-28T09:56:02.460Z,9.80
2023-04-28T09:58:33.755Z,9.77
2023-04-28T10:01:04.812Z,9.38
2023-04-28T10:03:33.306Z,10.40
2023-04-28T10:06:04.261Z,10.48
2023-04-28T10:08:32.655Z,10.07
2023-04-28T10:11:01.660Z,9.55
2023-04-28T10:13:32.364Z,9.77
2023-04-28T10:16:01.758Z,10.52
2023-04-28T10:18:31.887Z,10.48
2023-04-28T10:21:03.152Z,10.55
2023-04-28T10:24:13.414Z,10.55
2023-04-28T10:27:05.740Z,10.90
2023-04-28T10:29:36.749Z,10.80
2023-04-28T10:32:21.276Z,10.15
2023-04-28T10:34:49.836Z,11.90
2023-04-28T10:37:19.346Z,16.67
2023-04-28T10:40:25.379Z,16.05
2023-04-28T10:42:54.499Z,12.00
2023-04-28T10:45:57.531Z,13.40
2023-04-28T10:48:55.106Z,12.68
2023-04-28T10:51:25.505Z,14.65
2023-04-28T10:54:09.407Z,12.18
2023-04-28T10:56:38.888Z,11.70
2023-04-28T10:59:27.235Z,11.88
2023-04-28T11:01:55.699Z,11.48
2023-04-28T11:04:25.934Z,11.98
2023-04-28T11:07:13.714Z,11.90
2023-04-28T11:09:50.217Z,11.80
2023-04-28T11:12:19.230Z,12.00
2023-04-28T11:14:47.611Z,12.30
2023-04-28T11:17:18.734Z,12.65
2023-04-28T11:19:51.248Z,13.80
2023-04-28T11:22:23.380Z,13.57
2023-04-28T11:25:00.142Z,12.30
2023-04-28T11:27:29.871Z,14.30
2023-04-28T11:29:58.499Z,13.00
2023-04-28T11:32:32.129Z,13.20
2023-04-28T11:35:03.305Z,13.75
2023-04-28T11:37:31.835Z,14.00
2023-04-28T11:40:00.149Z,14.73
2023-04-28T11:42:29.314Z,13.48
2023-04-28T11:44:57.691Z,14.98
2023-04-28T11:47:33.515Z,13.85
2023-04-28T11:50:03.746Z,14.23
2023-04-28T11:52:32.145Z,13.30
2023-04-28T11:55:02.482Z,13.65
2023-04-28T11:57:30.969Z,14.52
2023-04-28T12:00:19.948Z,14.63
2023-04-28T12:02:48.703Z,14.80
2023-04-28T12:05:20.647Z,15.68
2023-04-28T12:07:49.032Z,15.30
2023-04-28T12:10:18.702Z,14.90
2023-04-28T12:15:20.651Z,14.98
2023-04-28T12:17:50.737Z,14.18
2023-04-28T12:20:36.639Z,15.52
2023-04-28T12:23:05.364Z,13.63
2023-04-28T12:25:35.067Z,13.98
2023-04-28T12:28:05.436Z,12.30
2023-04-28T12:30:35.198Z,11.32
2023-04-28T12:33:04.216Z,10.65
2023-04-28T12:35:33.188Z,11.05
2023-04-28T12:38:03.017Z,12.40
2023-04-28T12:40:31.397Z,12.73
2023-04-28T12:42:59.784Z,12.38
2023-04-28T12:45:29.424Z,11.35
2023-04-28T12:47:58.785Z,13.23
2023-04-28T12:50:27.778Z,12.88
2023-04-28T12:52:57.811Z,13.68
2023-04-28T12:55:27.717Z,13.27
2023-04-28T12:57:56.494Z,12.55
2023-04-28T13:00:25.165Z,13.02
2023-04-28T13:02:54.128Z,11.77
2023-04-28T13:05:22.658Z,12.45
2023-04-28T13:07:51.177Z,12.75
2023-04-28T13:10:21.276Z,12.55
2023-04-28T13:12:51.321Z,12.23
2023-04-28T13:15:19.794Z,12.52
2023-04-28T13:17:49.505Z,10.20
2023-04-28T13:20:17.860Z,10.65
2023-04-28T13:22:46.297Z,10.02
2023-04-28T13:25:15.184Z,10.70
2023-04-28T13:27:43.645Z,10.75
2023-04-28T13:30:14.390Z,10.00
2023-04-28T13:32:42.807Z,10.65
2023-04-28T13:35:11.191Z,9.57
2023-04-28T13:37:45.419Z,9.30
2023-04-28T13:40:14.087Z,10.18
2023-04-28T13:42:42.363Z,9.80
2023-04-28T13:45:11.370Z,8.70
2023-04-28T13:47:41.071Z,8.85
2023-04-28T13:50:09.747Z,8.23
2023-04-28T13:52:38.013Z,8.50
2023-04-28T13:55:07.350Z,8.63
2023-04-28T13:57:35.785Z,8.25
2023-04-28T14:00:04.960Z,7.60
2023-04-28T14:02:36.757Z,8.30
2023-04-28T14:05:07.224Z,7.63
2023-04-28T14:07:35.552Z,7.68
2023-04-28T14:10:04.957Z,7.80
2023-04-28T14:12:33.246Z,8.00
2023-04-28T14:15:01.876Z,8.00
2023-04-28T14:17:30.781Z,7.57
2023-04-28T14:19:59.294Z,8.23
2023-04-28T14:22:28.924Z,7.00
2023-04-28T14:24:57.442Z,6.38
2023-04-28T14:27:25.729Z,6.90
2023-04-28T14:29:54.004Z,7.05
2023-04-28T14:32:22.249Z,7.32
2023-04-28T14:34:51.133Z,7.38
2023-04-28T14:37:19.580Z,7.30
2023-04-28T14:39:49.896Z,7.43
2023-04-28T14:42:18.254Z,7.38
2023-04-28T14:44:46.693Z,6.80
2023-04-28T14:47:15.134Z,7.25
2023-04-28T14:49:43.347Z,7.18
2023-04-28T14:52:11.649Z,7.38
2023-04-28T14:54:39.896Z,7.32
2023-04-28T14:57:09.542Z,7.75
2023-04-28T14:59:38.089Z,7.60
2023-04-28T15:02:07.751Z,7.03
2023-04-28T15:04:36.186Z,6.25
2023-04-28T15:07:04.636Z,5.95
2023-04-28T15:09:33.007Z,6.70
2023-04-28T15:12:01.389Z,7.05
2023-04-28T15:14:31.633Z,5.50
2023-04-28T15:17:00.514Z,4.78
2023-04-28T15:19:29.059Z,5.88
2023-04-28T15:21:57.353Z,6.80
2023-04-28T15:24:25.638Z,6.40
2023-04-28T15:26:54.626Z,6.82
2023-04-28T15:29:22.853Z,6.30
2023-04-28T15:31:52.662Z,6.50
2023-04-28T15:34:21.110Z,6.43
2023-04-28T15:36:49.565Z,6.25
2023-04-28T15:39:17.810Z,6.00
2023-04-28T15:41:46.102Z,5.53
2023-04-28T15:44:14.389Z,4.72
2023-04-28T15:46:44.531Z,6.07
2023-04-28T15:49:14.342Z,6.75
2023-04-28T15:51:42.844Z,6.97
2023-04-28T15:54:10.992Z,7.22
2023-04-28T15:56:39.314Z,7.03
2023-04-28T15:59:08.352Z,6.85
2023-04-28T16:01:36.870Z,6.22
2023-04-28T16:04:05.745Z,6.13
2023-04-28T16:06:35.493Z,5.47
2023-04-28T16:09:04.203Z,5.90
2023-04-28T16:11:32.590Z,6.60
2023-04-28T16:14:00.769Z,7.00
2023-04-28T16:16:30.555Z,7.32
2023-04-28T16:18:58.856Z,7.20
2023-04-28T16:21:27.337Z,7.70
2023-04-28T16:23:57.567Z,7.32
2023-04-28T16:26:26.230Z,8.07
2023-04-28T16:28:54.568Z,7.88
2023-04-28T16:31:22.910Z,7.80
2023-04-28T16:33:51.116Z,7.53
2023-04-28T16:36:19.917Z,7.10
2023-04-28T16:38:48.151Z,7.05
2023-04-28T16:41:17.866Z,6.03
2023-04-28T16:43:46.066Z,5.20
2023-04-28T16:46:14.474Z,4.72
2023-04-28T16:48:43.154Z,4.43
2023-04-28T16:51:12.347Z,4.30
2023-04-28T16:53:40.592Z,4.03
2023-04-28T16:56:10.665Z,4.10
2023-04-28T16:58:40.749Z,4.95
2023-04-28T17:01:09.417Z,4.03
2023-04-28T17:03:41.764Z,3.40
2023-04-28T17:06:11.044Z,3.67
2023-04-28T17:08:40.121Z,3.05
2023-04-28T17:11:09.087Z,2.90
2023-04-28T17:13:37.445Z,2.60
2023-04-28T17:16:07.734Z,2.60
2023-04-28T17:18:36.641Z,2.50
2023-04-28T17:21:05.436Z,2.88
2023-04-28T17:23:33.625Z,2.60
2023-04-28T17:26:03.303Z,2.70
2023-04-28T17:28:32.645Z,2.60
2023-04-28T17:31:03.632Z,2.92
2023-04-28T17:33:33.270Z,2.58
2023-04-28T17:36:03.559Z,2.10
2023-04-28T17:38:32.410Z,2.00
2023-04-28T17:41:01.313Z,1.88
2023-04-28T17:43:29.839Z,1.75
2023-04-28T17:45:58.254Z,1.83
2023-04-28T17:48:26.692Z,1.65
2023-04-28T17:50:56.540Z,1.83
2023-04-28T17:53:24.869Z,1.60
2023-04-28T17:55:53.154Z,1.70
2023-04-28T17:58:22.332Z,1.67
2023-04-28T18:00:50.724Z,1.77
2023-04-28T18:03:19.086Z,1.98
2023-04-28T18:05:47.540Z,3.50
2023-04-28T18:08:17.100Z,3.10
2023-04-28T18:10:45.443Z,2.72
2023-04-28T18:13:13.739Z,2.30
2023-04-28T18:15:41.977Z,2.42
2023-04-28T18:18:11.065Z,2.10
2023-04-28T18:20:39.397Z,2.47
2023-04-28T18:23:08.875Z,2.70
2023-04-28T18:25:38.465Z,2.75
2023-04-28T18:28:08.029Z,2.55
2023-04-28T18:30:38.146Z,2.83
2023-04-28T18:33:06.702Z,2.60
2023-04-28T18:35:35.411Z,2.55
2023-04-28T18:38:06.059Z,2.70
2023-04-28T18:40:35.224Z,2.80
2023-04-28T18:43:04.849Z,2.80
2023-04-28T18:45:34.057Z,3.08
2023-04-28T18:48:03.091Z,2.92
2023-04-28T18:50:32.215Z,2.97
2023-04-28T18:53:01.860Z,3.10
2023-04-28T18:55:30.274Z,3.17
2023-04-28T18:57:58.600Z,3.00
2023-04-28T19:00:28.319Z,2.20
2023-04-28T19:02:56.790Z,2.40
2023-04-28T19:05:25.739Z,2.78
2023-04-28T19:07:53.951Z,2.30
2023-04-28T19:10:22.225Z,2.20
2023-04-28T19:12:50.459Z,2.20
2023-04-28T19:15:19.350Z,2.20
2023-04-28T19:17:48.918Z,2.08
2023-04-28T19:20:17.876Z,2.30
2023-04-28T19:22:46.999Z,2.70
2023-04-28T19:25:16.855Z,2.60
2023-04-28T19:27:46.424Z,2.53
2023-04-28T19:30:16.733Z,2.45
2023-04-28T19:32:45.504Z,2.60
2023-04-28T19:35:15.696Z,2.70
2023-04-28T19:37:44.418Z,2.55
2023-04-28T19:40:13.546Z,2.80
2023-04-28T19:42:42.133Z,2.72
2023-04-28T19:45:11.528Z,2.97
2023-04-28T19:47:39.785Z,3.63
2023-04-28T19:50:10.114Z,3.53
2023-04-28T19:52:40.159Z,4.28
2023-04-28T19:55:09.614Z,4.20
2023-04-28T19:57:38.323Z,4.45
2023-04-28T20:00:09.607Z,4.57
2023-04-28T20:02:38.862Z,4.70
2023-04-28T20:05:08.323Z,5.57
2023-04-28T20:07:40.734Z,5.82
2023-04-28T20:10:09.861Z,5.90
2023-04-28T20:12:39.018Z,6.20
2023-04-28T20:15:08.541Z,6.18
2023-04-28T20:17:37.844Z,5.40
2023-04-28T20:20:07.434Z,4.50
2023-04-28T20:22:36.292Z,3.13
2023-04-28T20:25:07.104Z,3.53
2023-04-28T20:27:35.408Z,2.83
2023-04-28T20:30:04.936Z,2.78
2023-04-28T20:32:34.872Z,2.53
2023-04-28T20:35:05.649Z,2.55
2023-04-28T20:37:34.123Z,2.85
2023-04-28T20:40:03.042Z,2.70
2023-04-28T20:42:33.139Z,2.90
2023-04-28T20:45:02.977Z,2.90
2023-04-28T20:47:31.907Z,3.17
2023-04-28T20:50:00.399Z,3.40
2023-04-28T20:52:28.665Z,3.30
2023-04-28T20:54:57.356Z,3.20
2023-04-28T20:57:25.637Z,3.50
2023-04-28T20:59:55.332Z,3.42
2023-04-28T21:02:23.651Z,3.20
2023-04-28T21:04:52.097Z,3.30
2023-04-28T21:07:20.395Z,3.22
2023-04-28T21:09:48.810Z,5.93
2023-04-28T21:12:17.112Z,6.38
2023-04-28T21:14:45.357Z,5.68
2023-04-28T21:17:14.919Z,5.05
2023-04-28T21:19:43.739Z,4.63
2023-04-28T21:22:11.947Z,3.38
2023-04-28T21:24:40.206Z,2.90
2023-04-28T21:27:08.704Z,3.10
2023-04-28T21:29:36.992Z,2.70
2023-04-28T21:32:05.270Z,2.90
2023-04-28T21:34:35.152Z,2.90
2023-04-28T21:37:03.354Z,2.90
2023-04-28T21:39:31.578Z,2.53
2023-04-28T21:41:59.827Z,2.72
2023-04-28T21:44:28.354Z,3.03
2023-04-28T21:46:56.567Z,3.40
2023-04-28T21:49:24.793Z,3.17
2023-04-28T21:51:54.434Z,3.42
2023-04-28T21:54:22.686Z,3.03
2023-04-28T21:56:50.928Z,3.25
2023-04-28T21:59:19.232Z,3.60
2023-04-28T22:01:48.028Z,3.50
2023-04-28T22:04:16.753Z,3.63
2023-04-28T22:06:46.218Z,4.00
2023-04-28T22:09:15.969Z,3.60
2023-04-28T22:11:44.277Z,4.25
2023-04-28T22:14:21.529Z,3.67
2023-04-28T22:17:00.721Z,3.63
2023-04-28T22:19:29.089Z,3.90
2023-04-28T22:21:57.790Z,4.05
2023-04-28T22:24:27.682Z,3.88
2023-04-28T22:26:56.207Z,4.20
2023-04-28T22:29:25.584Z,3.83
2023-04-28T22:31:53.928Z,3.75
2023-04-28T22:34:22.777Z,3.65
2023-04-28T22:36:51.410Z,4.20
2023-04-28T22:39:19.659Z,3.75
2023-04-28T22:41:49.289Z,4.40
2023-04-28T22:44:17.525Z,3.83
2023-04-28T22:46:46.201Z,3.90
2023-04-28T22:49:14.546Z,3.60
2023-04-28T22:51:42.944Z,4.05
2023-04-28T22:54:11.191Z,3.70
2023-04-28T22:56:41.352Z,3.70
2023-04-28T22:59:11.134Z,3.85
2023-04-28T23:01:39.906Z,3.65
2023-04-28T23:04:08.480Z,3.55
2023-04-28T23:06:36.940Z,3.70
2023-04-28T23:09:05.439Z,3.88
2023-04-28T23:11:33.697Z,3.67
2023-04-28T23:14:02.032Z,3.70
2023-04-28T23:16:31.861Z,3.67
2023-04-28T23:19:00.095Z,3.38
2023-04-28T23:21:28.764Z,3.55
2023-04-28T23:23:56.976Z,3.50
2023-04-28T23:26:26.239Z,3.65
2023-04-28T23:28:54.523Z,3.50
2023-04-28T23:31:22.825Z,3.47
2023-04-28T23:33:52.515Z,3.38
2023-04-28T23:36:20.718Z,3.45
2023-04-28T23:38:49.278Z,3.35
2023-04-28T23:41:17.566Z,3.50
2023-04-28T23:43:45.893Z,3.40
2023-04-28T23:46:14.283Z,3.33
2023-04-28T23:48:42.594Z,3.38
2023-04-28T23:51:12.396Z,3.50
2023-04-28T23:53:40.698Z,3.38
2023-04-28T23:56:09.168Z,3.30
2023-04-28T23:58:37.706Z,3.22
